Weather at Utopia Airport

Public forecast

Using degrees Celsius for public forecast. Weather courtesy of forecast.io.

Closest aviation weather report (METAR) to Utopia Airport

Closest report is Alice Springs Airport, 116.1 nm (215.0 km) SSW. Retrieved 2021/06/20 02:30 UTC (24 minutes ago):

YBAS 200230Z AUTO 09007KT 9999 // NCD 15/05 Q1023 RF000/0000

Closest aviation forecast (TAF) to Utopia Airport

Closest forecast is Alice Springs Airport, 116.1 nm (215.0 km) SSW. Retrieved 2021-06-20 00:00 UTC (3 hours ago):

TAF YBAS 192302Z 2000/2100 10010KT CAVOK FM200800 11005KT CAVOK FM201400 06005KT CAVOK